Time;durP1;ratioP1;P1;durP2;ratioP2;P2;SDS_P1;SDS_P2;PMS_P1;PMS_P2;Temp;Humidity;BMP_temperature;BMP_pressure;BME280_temperature;BME280_humidity;BME280_pressure;Samples;Min_cycle;Max_cycle;Signal;HPM_P1;HPM_P2
2023/04/17 00:01:36;;;;;;;14.63;10.30;;;16.40;91.60;;;;;;5010175;28;20046;-59
2023/04/17 00:04:02;;;;;;;15.73;10.10;;;16.40;90.80;;;;;;5004733;28;20125;-61
2023/04/17 00:06:28;;;;;;;16.48;9.60;;;;;;;;;;5007491;28;20103;-61
2023/04/17 00:08:55;;;;;;;16.27;10.23;;;;;;;;;;5011673;28;20115;-60
2023/04/17 00:11:21;;;;;;;16.05;10.50;;;;;;;;;;5003932;28;20038;-61
2023/04/17 00:13:47;;;;;;;18.67;10.27;;;;;;;;;;5009310;28;20457;-60
2023/04/17 00:16:13;;;;;;;14.77;9.88;;;;;;;;;;5009250;28;20361;-60
2023/04/17 00:18:39;;;;;;;15.93;9.40;;;16.60;91.60;;;;;;5009119;28;20057;-60
2023/04/17 00:21:05;;;;;;;15.68;9.95;;;16.40;89.30;;;;;;5006335;28;20096;-62
2023/04/17 00:23:31;;;;;;;15.93;10.20;;;;;;;;;;5009088;28;20056;-59
2023/04/17 00:25:57;;;;;;;16.67;9.70;;;;;;;;;;5008866;28;20113;-62
2023/04/17 00:28:24;;;;;;;16.60;10.35;;;;;;;;;;5011223;28;20050;-59
2023/04/17 00:30:50;;;;;;;16.55;9.68;;;;;;;;;;5007337;28;20400;-61
2023/04/17 00:33:15;;;;;;;16.17;9.68;;;16.40;91.50;;;;;;5009792;28;20581;-61
2023/04/17 00:35:41;;;;;;;17.80;10.25;;;16.10;91.40;;;;;;5010121;28;20042;-60
2023/04/17 00:38:08;;;;;;;18.25;10.68;;;16.70;91.20;;;;;;4999664;28;20041;-60
2023/04/17 00:40:34;;;;;;;15.60;9.10;;;;;;;;;;5010681;28;20053;-60
2023/04/17 00:43:01;;;;;;;17.00;9.90;;;;;;;;;;5003723;28;20038;-61
2023/04/17 00:45:27;;;;;;;16.05;9.95;;;16.40;91.50;;;;;;5003322;28;20061;-62
2023/04/17 00:47:52;;;;;;;16.08;10.10;;;16.40;91.40;;;;;;5008852;28;20053;-60
2023/04/17 00:50:18;;;;;;;16.98;9.55;;;16.70;90.30;;;;;;5008293;28;20049;-63
2023/04/17 00:52:44;;;;;;;17.30;10.43;;;16.30;91.40;;;;;;5005960;28;20042;-63
2023/04/17 00:55:10;;;;;;;18.90;10.38;;;;;;;;;;5008177;28;20039;-60
2023/04/17 00:57:36;;;;;;;15.80;9.82;;;;;;;;;;5009705;28;20057;-61
2023/04/17 01:00:03;;;;;;;16.23;10.23;;;;;;;;;;5007601;28;20133;-59
2023/04/17 01:02:28;;;;;;;16.13;9.48;;;16.50;91.20;;;;;;5009109;28;20049;-61
2023/04/17 01:04:54;;;;;;;16.67;9.98;;;16.20;91.40;;;;;;5007877;28;20450;-59
2023/04/17 01:07:20;;;;;;;14.95;9.55;;;;;;;;;;5009607;28;20046;-60
2023/04/17 01:09:46;;;;;;;18.85;10.23;;;;;;;;;;5005825;28;20144;-61
2023/04/17 01:12:22;;;;;;;16.75;9.55;;;16.20;90.00;;;;;;5003135;28;20389;-60
2023/04/17 01:14:50;;;;;;;18.25;9.68;;;;;;;;;;5009328;28;20112;-62
2023/04/17 01:17:18;;;;;;;15.13;8.82;;;;;;;;;;5011951;28;20057;-60
2023/04/17 01:19:44;;;;;;;17.15;9.25;;;16.30;90.60;;;;;;5013868;28;20048;-61
2023/04/17 01:22:10;;;;;;;18.15;8.90;;;16.50;91.50;;;;;;5006393;28;20380;-59
2023/04/17 01:24:36;;;;;;;18.38;9.55;;;;;;;;;;5014342;28;20056;-62
2023/04/17 01:27:03;;;;;;;15.90;9.52;;;16.00;91.30;;;;;;5012245;28;20137;-60
2023/04/17 01:29:28;;;;;;;17.88;8.85;;;16.40;91.40;;;;;;5010925;28;20056;-61
2023/04/17 01:31:54;;;;;;;16.15;9.40;;;16.30;91.50;;;;;;5013396;28;20124;-60
2023/04/17 01:34:20;;;;;;;14.38;8.85;;;16.30;90.10;;;;;;5014042;28;20500;-60
2023/04/17 01:36:46;;;;;;;15.27;9.60;;;16.30;91.20;;;;;;5011010;28;20440;-59
2023/04/17 01:39:12;;;;;;;19.45;9.90;;;;;;;;;;5013047;28;20679;-60
2023/04/17 01:41:38;;;;;;;14.18;9.02;;;16.40;91.40;;;;;;5012874;28;20373;-60
2023/04/17 01:44:03;;;;;;;14.15;9.50;;;16.20;91.40;;;;;;5010366;28;20041;-61
2023/04/17 01:46:30;;;;;;;18.27;9.77;;;;;;;;;;5007136;28;20042;-60
2023/04/17 01:48:56;;;;;;;18.30;9.52;;;;;;;;;;5011714;28;20095;-61
2023/04/17 01:51:21;;;;;;;15.88;9.43;;;16.40;91.30;;;;;;5004811;28;20037;-63
2023/04/17 01:53:48;;;;;;;17.15;9.43;;;;;;;;;;5011106;28;20054;-62
2023/04/17 01:56:14;;;;;;;18.13;10.30;;;;;;;;;;5009486;28;20099;-60
2023/04/17 01:58:39;;;;;;;17.25;10.40;;;16.50;91.40;;;;;;5013902;28;20133;-60
2023/04/17 02:01:05;;;;;;;16.88;9.40;;;16.20;91.30;;;;;;5006645;28;20199;-60
2023/04/17 02:03:31;;;;;;;14.93;9.05;;;16.30;91.30;;;;;;5013917;28;20068;-60
2023/04/17 02:05:57;;;;;;;14.35;9.05;;;16.60;91.40;;;;;;5005091;28;20048;-60
2023/04/17 02:08:23;;;;;;;18.02;10.23;;;;;;;;;;5012009;28;20050;-59
2023/04/17 02:10:50;;;;;;;17.50;9.63;;;;;;;;;;5010312;28;20048;-61
2023/04/17 02:13:16;;;;;;;18.77;9.88;;;;;;;;;;5010317;28;20085;-62
2023/04/17 02:15:41;;;;;;;18.17;9.85;;;16.30;89.80;;;;;;5004157;28;20042;-61
2023/04/17 02:18:08;;;;;;;19.38;10.48;;;;;;;;;;5012805;28;20050;-60
2023/04/17 02:20:34;;;;;;;17.60;9.70;;;16.30;89.10;;;;;;5010392;28;20428;-62
2023/04/17 02:23:00;;;;;;;19.15;10.10;;;;;;;;;;5011993;28;20084;-59
2023/04/17 02:25:27;;;;;;;16.38;9.73;;;;;;;;;;5010240;28;20077;-62
2023/04/17 02:27:53;;;;;;;15.80;9.40;;;16.30;90.50;;;;;;5004919;28;20046;-60
2023/04/17 02:30:19;;;;;;;13.77;10.10;;;;;;;;;;5011617;28;20538;-61
2023/04/17 02:32:45;;;;;;;15.68;9.43;;;16.30;90.40;;;;;;5005915;28;20603;-60
2023/04/17 02:35:12;;;;;;;16.42;9.65;;;;;;;;;;5011725;28;20037;-61
2023/04/17 02:37:37;;;;;;;17.38;10.00;;;16.50;91.40;;;;;;5009271;28;20107;-60
2023/04/17 02:40:06;;;;;;;15.65;9.40;;;;;;;;;;5012070;28;20038;-60
2023/04/17 02:42:32;;;;;;;16.33;9.70;;;;;;;;;;5008736;28;20065;-62
2023/04/17 02:44:58;;;;;;;16.65;9.88;;;16.30;90.10;;;;;;5005265;28;20074;-61
2023/04/17 02:47:24;;;;;;;17.00;9.60;;;16.20;91.30;;;;;;5011617;28;20073;-61
2023/04/17 02:49:50;;;;;;;18.75;10.45;;;;;;;;;;5011487;28;20089;-60
2023/04/17 02:52:16;;;;;;;17.27;9.27;;;;;;;;;;5009376;28;20527;-61
2023/04/17 02:54:42;;;;;;;13.52;9.18;;;16.30;91.30;;;;;;5008715;28;20129;-60
2023/04/17 02:57:08;;;;;;;14.18;9.70;;;;;;;;;;5011636;28;20188;-60
2023/04/17 02:59:34;;;;;;;13.15;8.55;;;;;;;;;;5005648;28;20090;-63
2023/04/17 03:02:02;;;;;;;16.50;9.45;;;16.40;89.60;;;;;;5009290;28;20504;-63
2023/04/17 03:04:28;;;;;;;15.48;9.35;;;16.20;91.20;;;;;;5006793;28;20045;-63
2023/04/17 03:06:54;;;;;;;14.32;9.25;;;16.00;91.10;;;;;;5008960;28;20406;-63
2023/04/17 03:09:21;;;;;;;15.23;9.27;;;16.30;91.20;;;;;;5004474;28;20054;-62
2023/04/17 03:11:49;;;;;;;13.55;9.07;;;16.50;90.70;;;;;;5002645;28;20060;-61
2023/04/17 03:14:15;;;;;;;15.85;9.43;;;16.00;91.10;;;;;;5008037;28;20107;-60
2023/04/17 03:16:41;;;;;;;14.25;9.55;;;;;;;;;;5004612;28;20484;-60
2023/04/17 03:19:07;;;;;;;15.05;9.88;;;16.20;91.20;;;;;;5011251;28;20448;-60
2023/04/17 03:21:33;;;;;;;15.90;9.38;;;;;;;;;;5003864;28;20042;-59
2023/04/17 03:23:59;;;;;;;15.55;9.95;;;16.50;91.20;;;;;;5011127;28;20045;-59
2023/04/17 03:26:25;;;;;;;13.50;9.00;;;16.00;91.10;;;;;;5009123;28;20632;-59
2023/04/17 03:28:51;;;;;;;15.80;9.95;;;16.30;91.10;;;;;;5007056;28;20045;-59
2023/04/17 03:31:17;;;;;;;16.08;10.27;;;;;;;;;;5012302;28;20427;-60
2023/04/17 03:33:43;;;;;;;17.27;10.68;;;;;;;;;;5006105;28;20072;-59
2023/04/17 03:36:10;;;;;;;17.45;10.65;;;16.20;90.30;;;;;;5008046;28;20053;-60
2023/04/17 03:38:36;;;;;;;15.55;10.02;;;;;;;;;;5007244;28;20050;-60
2023/04/17 03:41:02;;;;;;;15.45;10.20;;;16.20;91.20;;;;;;5011009;28;20042;-60
2023/04/17 03:43:27;;;;;;;16.38;11.10;;;16.10;90.30;;;;;;5003063;28;20068;-59
2023/04/17 03:45:53;;;;;;;18.10;10.60;;;16.30;91.20;;;;;;5008310;28;20041;-60
2023/04/17 03:48:19;;;;;;;18.65;11.57;;;16.40;91.20;;;;;;5010827;28;20045;-60
2023/04/17 03:50:45;;;;;;;16.65;11.07;;;;;;;;;;5010158;28;20348;-62
2023/04/17 03:53:11;;;;;;;17.83;11.23;;;;;;;;;;5003128;28;20046;-63
2023/04/17 03:55:37;;;;;;;17.92;11.75;;;;;;;;;;5000017;28;20057;-60
2023/04/17 03:58:03;;;;;;;17.90;11.27;;;16.50;89.50;;;;;;5009385;28;20064;-61
2023/04/17 04:00:30;;;;;;;17.02;11.30;;;;;;;;;;5009944;28;20042;-60
2023/04/17 04:02:56;;;;;;;16.75;11.23;;;16.30;91.20;;;;;;5006388;28;20045;-62
2023/04/17 04:05:22;;;;;;;16.10;10.63;;;16.20;91.20;;;;;;5007778;28;20052;-60
2023/04/17 04:07:48;;;;;;;18.52;11.00;;;;;;;;;;5008941;28;20908;-60
2023/04/17 04:10:14;;;;;;;17.13;11.30;;;16.20;90.00;;;;;;5011231;28;20053;-60
2023/04/17 04:12:39;;;;;;;18.25;11.98;;;16.30;90.00;;;;;;5010610;28;20123;-61
2023/04/17 04:15:06;;;;;;;14.55;10.40;;;16.50;89.10;;;;;;5010343;28;20046;-61
2023/04/17 04:17:32;;;;;;;14.90;10.13;;;;;;;;;;5008269;28;20046;-63
2023/04/17 04:19:58;;;;;;;15.00;10.43;;;16.20;91.20;;;;;;5005902;28;20673;-60
2023/04/17 04:22:24;;;;;;;15.45;10.43;;;16.40;90.00;;;;;;5011188;28;20061;-62
2023/04/17 04:24:52;;;;;;;16.17;11.07;;;;;;;;;;5009365;28;20041;-62
2023/04/17 04:27:21;;;;;;;14.65;10.60;;;16.70;91.30;;;;;;5009030;28;20053;-61
2023/04/17 04:29:48;;;;;;;14.60;10.15;;;;;;;;;;5008728;28;20044;-63
2023/04/17 04:32:15;;;;;;;16.23;10.60;;;16.60;89.40;;;;;;5009335;28;20045;-60
2023/04/17 04:34:43;;;;;;;14.82;10.23;;;16.50;91.30;;;;;;5011120;28;20080;-62
2023/04/17 04:37:12;;;;;;;14.20;10.50;;;16.30;91.00;;;;;;5007790;28;20377;-60
2023/04/17 04:39:38;;;;;;;15.32;10.40;;;16.60;90.80;;;;;;5008630;28;20050;-60
2023/04/17 04:42:05;;;;;;;17.08;10.25;;;16.50;91.30;;;;;;5005942;28;20555;-60
2023/04/17 04:44:31;;;;;;;14.52;9.55;;;16.40;91.30;;;;;;5004106;28;20484;-60
2023/04/17 04:46:57;;;;;;;15.30;10.57;;;;;;;;;;5011150;28;20041;-62
2023/04/17 04:49:22;;;;;;;14.85;10.15;;;16.40;91.30;;;;;;5008896;28;20050;-60
2023/04/17 04:51:48;;;;;;;14.43;10.00;;;16.50;90.80;;;;;;5010692;28;20113;-63
2023/04/17 04:54:14;;;;;;;14.25;9.65;;;16.30;91.20;;;;;;5004713;28;20057;-64
2023/04/17 04:56:43;;;;;;;14.77;10.18;;;;;;;;;;5010888;28;20746;-64
2023/04/17 04:59:10;;;;;;;14.48;10.15;;;16.50;91.20;;;;;;5011691;28;20050;-63
2023/04/17 05:01:38;;;;;;;15.98;9.48;;;;;;;;;;5012890;28;20044;-63
2023/04/17 05:04:04;;;;;;;12.48;9.00;;;16.50;90.80;;;;;;5014419;28;20125;-64
2023/04/17 05:06:30;;;;;;;11.82;8.95;;;16.70;90.90;;;;;;5012846;28;20089;-63
2023/04/17 05:08:56;;;;;;;11.98;8.85;;;;;;;;;;5011559;28;20088;-63
2023/04/17 05:11:22;;;;;;;12.90;8.85;;;16.60;91.20;;;;;;5010468;28;20120;-64
2023/04/17 05:13:47;;;;;;;13.30;8.93;;;16.60;91.20;;;;;;5013129;28;20176;-63
2023/04/17 05:16:14;;;;;;;13.13;9.13;;;;;;;;;;5011811;28;20120;-64
2023/04/17 05:18:40;;;;;;;12.38;8.80;;;;;;;;;;5010743;28;20141;-63
2023/04/17 05:21:06;;;;;;;15.18;9.50;;;;;;;;;;5011115;28;20046;-63
2023/04/17 05:23:32;;;;;;;12.82;8.95;;;;;;;;;;5020514;28;20049;-64
2023/04/17 05:25:59;;;;;;;14.15;8.40;;;;;;;;;;5013436;28;20533;-64
2023/04/17 05:28:28;;;;;;;13.88;8.50;;;16.60;91.20;;;;;;5013036;28;20129;-64
2023/04/17 05:30:54;;;;;;;13.48;8.13;;;16.70;91.10;;;;;;5011835;28;20381;-63
2023/04/17 05:33:20;;;;;;;10.88;7.95;;;;;;;;;;5012843;28;20444;-64
2023/04/17 05:35:46;;;;;;;13.32;8.75;;;16.60;90.30;;;;;;5013341;28;20050;-63
2023/04/17 05:38:12;;;;;;;12.35;7.75;;;;;;;;;;5012439;28;20042;-63
2023/04/17 05:40:39;;;;;;;12.80;8.70;;;;;;;;;;5013386;28;20118;-63
2023/04/17 05:43:07;;;;;;;11.68;7.68;;;;;;;;;;5009071;28;20048;-63
2023/04/17 05:45:33;;;;;;;13.75;8.30;;;;;;;;;;5009598;28;20125;-64
2023/04/17 05:47:58;;;;;;;10.68;7.57;;;16.60;91.10;;;;;;5005834;28;20060;-63
2023/04/17 05:50:24;;;;;;;13.10;8.45;;;16.60;91.10;;;;;;5010629;28;20042;-64
2023/04/17 05:52:50;;;;;;;12.50;7.28;;;;;;;;;;5013543;28;20113;-64
2023/04/17 05:55:18;;;;;;;12.10;7.18;;;16.70;91.10;;;;;;5000758;28;20052;-64
2023/04/17 05:57:45;;;;;;;10.65;7.85;;;;;;;;;;5005782;28;20053;-63
2023/04/17 06:00:12;;;;;;;10.23;7.30;;;16.60;89.20;;;;;;5011176;28;20037;-64
2023/04/17 06:02:41;;;;;;;11.63;7.47;;;16.60;87.90;;;;;;4995007;28;20097;-63
2023/04/17 06:05:07;;;;;;;11.85;7.78;;;16.80;90.20;;;;;;5003654;28;20056;-63
2023/04/17 06:07:34;;;;;;;11.82;7.15;;;;;;;;;;5012741;28;20504;-64
2023/04/17 06:10:00;;;;;;;11.13;7.63;;;16.60;89.60;;;;;;5011604;28;20053;-63
2023/04/17 06:12:26;;;;;;;10.35;7.43;;;;;;;;;;5012775;28;20400;-63
2023/04/17 06:14:52;;;;;;;9.75;7.13;;;16.90;91.10;;;;;;5008414;28;20045;-64
2023/04/17 06:17:18;;;;;;;10.63;7.07;;;;;;;;;;5004010;28;20144;-64
2023/04/17 06:19:44;;;;;;;9.10;6.90;;;;;;;;;;5011449;28;20049;-63
2023/04/17 06:22:10;;;;;;;10.30;7.13;;;16.80;89.00;;;;;;5010019;28;20053;-63
2023/04/17 06:24:36;;;;;;;11.90;7.05;;;16.80;91.00;;;;;;5013494;28;20368;-64
2023/04/17 06:27:03;;;;;;;10.35;7.30;;;;;;;;;;5010643;28;20037;-64
2023/04/17 06:29:29;;;;;;;8.98;6.85;;;;;;;;;;5012407;28;20152;-64
2023/04/17 06:31:55;;;;;;;10.93;7.03;;;16.90;91.00;;;;;;5013241;28;20369;-64
2023/04/17 06:34:21;;;;;;;10.05;7.18;;;16.90;91.00;;;;;;5005113;28;20061;-64
2023/04/17 06:36:47;;;;;;;10.20;6.97;;;;;;;;;;5011910;28;20045;-63
2023/04/17 06:39:30;;;;;;;10.90;7.40;;;17.00;88.00;;;;;;5012386;28;20042;-64
2023/04/17 06:41:58;;;;;;;10.45;7.15;;;;;;;;;;5012042;28;20530;-63
2023/04/17 06:44:23;;;;;;;12.05;7.28;;;17.00;90.90;;;;;;5003227;28;20038;-64
2023/04/17 06:46:52;;;;;;;9.32;6.70;;;16.90;87.50;;;;;;5009721;28;20056;-64
2023/04/17 06:49:18;;;;;;;10.05;7.28;;;17.10;90.90;;;;;;5011974;28;20037;-64
2023/04/17 06:51:46;;;;;;;9.73;7.15;;;17.20;90.90;;;;;;5011141;28;20035;-63
2023/04/17 06:54:12;;;;;;;10.63;6.88;;;17.10;89.10;;;;;;5008959;28;20069;-64
2023/04/17 06:56:39;;;;;;;10.75;6.85;;;16.90;90.80;;;;;;5004811;28;20056;-63
2023/04/17 06:59:06;;;;;;;10.05;7.10;;;;;;;;;;5004720;28;20053;-64
2023/04/17 07:01:33;;;;;;;10.73;7.20;;;;;;;;;;5011352;28;20068;-64
2023/04/17 07:03:59;;;;;;;11.40;7.93;;;;;;;;;;5006223;28;20038;-64
2023/04/17 07:06:26;;;;;;;12.57;7.38;;;;;;;;;;5007277;28;20050;-63
2023/04/17 07:08:51;;;;;;;12.27;7.40;;;17.20;90.60;;;;;;5007549;28;20107;-65
2023/04/17 07:11:18;;;;;;;10.27;7.13;;;;;;;;;;5007810;28;20074;-64
2023/04/17 07:13:44;;;;;;;13.27;8.85;;;;;;;;;;5010263;28;20054;-64
2023/04/17 07:16:10;;;;;;;9.90;7.32;;;;;;;;;;5012435;28;20108;-67
2023/04/17 07:18:36;;;;;;;18.75;7.80;;;;;;;;;;5010661;28;20395;-63
2023/04/17 07:21:02;;;;;;;16.80;9.10;;;;;;;;;;5008898;28;20107;-65
2023/04/17 07:23:28;;;;;;;17.42;9.38;;;17.30;90.60;;;;;;5009833;28;20081;-68
2023/04/17 07:25:54;;;;;;;13.27;8.80;;;;;;;;;;5009543;28;20077;-66
2023/04/17 07:28:20;;;;;;;14.98;9.60;;;17.40;90.60;;;;;;5012029;28;20095;-63
2023/04/17 07:30:46;;;;;;;16.45;9.68;;;;;;;;;;5011108;28;20038;-60
2023/04/17 07:33:13;;;;;;;12.90;9.20;;;17.80;90.00;;;;;;5008279;28;20053;-60
2023/04/17 07:35:39;;;;;;;16.98;9.20;;;17.80;90.70;;;;;;5012028;28;20056;-60
2023/04/17 07:38:05;;;;;;;15.73;9.68;;;17.60;90.60;;;;;;5011595;28;20072;-60
2023/04/17 07:40:32;;;;;;;18.48;10.82;;;;;;;;;;5011787;28;20038;-60
2023/04/17 07:42:58;;;;;;;14.55;10.40;;;17.50;87.70;;;;;;5000064;28;20050;-60
2023/04/17 07:45:25;;;;;;;15.82;10.30;;;;;;;;;;5008496;28;20092;-63
2023/04/17 07:47:52;;;;;;;14.85;10.73;;;;;;;;;;5009156;28;20077;-62
2023/04/17 07:50:18;;;;;;;17.08;11.05;;;;;;;;;;5004092;28;20046;-62
2023/04/17 07:52:45;;;;;;;14.68;11.13;;;17.70;90.40;;;;;;5005124;28;20052;-60
2023/04/17 07:55:11;;;;;;;16.05;10.80;;;;;;;;;;5000140;28;20053;-59
2023/04/17 07:57:41;;;;;;;15.65;11.07;;;;;;;;;;5005691;28;20129;-59
2023/04/17 08:00:09;;;;;;;16.58;10.95;;;17.80;88.60;;;;;;5009101;28;20049;-59
2023/04/17 08:02:35;;;;;;;15.52;11.20;;;;;;;;;;5009090;28;20192;-63
2023/04/17 08:05:02;;;;;;;13.35;10.82;;;17.80;88.40;;;;;;5009189;28;20046;-64
2023/04/17 08:07:28;;;;;;;14.80;10.10;;;17.80;90.60;;;;;;5007597;28;20484;-62
2023/04/17 08:09:54;;;;;;;17.15;11.55;;;;;;;;;;5010302;28;20061;-62
2023/04/17 08:12:20;;;;;;;15.95;11.20;;;;;;;;;;5009575;28;20120;-65
2023/04/17 08:14:46;;;;;;;16.92;11.50;;;;;;;;;;5004987;28;20160;-60
2023/04/17 08:17:12;;;;;;;16.48;10.80;;;17.90;90.70;;;;;;5008530;28;20074;-59
2023/04/17 08:19:38;;;;;;;16.15;11.13;;;18.30;90.70;;;;;;5007359;28;20484;-64
2023/04/17 08:22:04;;;;;;;16.60;11.38;;;18.00;88.30;;;;;;5009235;28;20388;-64
2023/04/17 08:24:30;;;;;;;15.05;10.27;;;18.30;90.40;;;;;;5002230;28;20515;-64
2023/04/17 08:26:57;;;;;;;14.13;10.07;;;18.10;90.00;;;;;;5007963;28;20034;-59
2023/04/17 08:29:23;;;;;;;13.50;10.50;;;18.20;89.60;;;;;;5008711;28;20044;-64
2023/04/17 08:31:49;;;;;;;15.82;9.77;;;;;;;;;;5009423;28;20045;-64
2023/04/17 08:34:15;;;;;;;16.88;10.70;;;;;;;;;;5007770;28;20066;-67
2023/04/17 08:36:41;;;;;;;12.70;9.25;;;18.40;90.50;;;;;;5010406;28;20543;-66
2023/04/17 08:39:08;;;;;;;15.55;10.18;;;18.40;90.40;;;;;;5011007;28;20077;-60
2023/04/17 08:41:37;;;;;;;14.52;9.77;;;18.30;90.30;;;;;;5010893;28;20471;-59
2023/04/17 08:44:03;;;;;;;12.73;9.98;;;18.50;90.30;;;;;;4999039;28;20042;-60
2023/04/17 08:46:30;;;;;;;13.10;8.30;;;18.50;87.50;;;;;;5010761;28;20138;-60
2023/04/17 08:48:56;;;;;;;14.68;9.02;;;18.50;88.20;;;;;;5010504;28;20365;-60
2023/04/17 08:51:25;;;;;;;12.90;8.82;;;18.60;85.90;;;;;;5004885;28;20053;-60
2023/04/17 08:53:51;;;;;;;13.73;8.48;;;;;;;;;;5009502;28;20042;-59
2023/04/17 08:56:17;;;;;;;12.88;9.02;;;18.80;88.00;;;;;;5008456;28;20444;-59
2023/04/17 08:58:43;;;;;;;14.65;8.52;;;;;;;;;;5005132;28;20180;-62
2023/04/17 09:01:10;;;;;;;15.18;8.88;;;18.90;90.20;;;;;;5007059;28;20081;-60
2023/04/17 09:03:42;;;;;;;13.20;8.77;;;19.00;86.20;;;;;;5009160;28;20042;-65
2023/04/17 09:06:11;;;;;;;13.70;8.68;;;19.00;90.30;;;;;;5006986;28;20411;-60
2023/04/17 09:08:38;;;;;;;14.48;8.88;;;19.00;88.00;;;;;;5010341;28;20042;-60
2023/04/17 09:11:04;;;;;;;11.02;7.93;;;19.00;90.20;;;;;;5012370;28;20082;-68
2023/04/17 09:13:30;;;;;;;12.02;7.82;;;;;;;;;;5009772;28;20045;-59
2023/04/17 09:16:06;;;;;;;13.52;8.98;;;19.20;86.10;;;;;;5001142;28;20456;-60
2023/04/17 09:18:32;;;;;;;11.27;7.82;;;;;;;;;;5008728;28;20459;-60
2023/04/17 09:20:59;;;;;;;12.98;8.02;;;19.10;90.10;;;;;;5003455;28;20398;-59
2023/04/17 09:23:28;;;;;;;11.75;7.65;;;19.10;87.10;;;;;;5009967;28;20054;-60
2023/04/17 09:26:14;;;;;;;12.23;8.27;;;19.30;86.60;;;;;;5007302;28;20446;-61
2023/04/17 09:28:42;;;;;;;11.57;7.60;;;;;;;;;;5007700;28;20125;-59
2023/04/17 09:31:17;;;;;;;13.13;8.48;;;19.40;85.90;;;;;;5004542;28;20169;-61
2023/04/17 09:33:59;;;;;;;36.33;9.57;;;19.20;85.90;;;;;;5001837;28;20062;-59
2023/04/17 09:36:26;;;;;;;62.63;12.80;;;19.20;90.00;;;;;;5010259;28;20068;-61
2023/04/17 09:38:52;;;;;;;79.38;11.38;;;;;;;;;;5011297;28;20045;-59
2023/04/17 09:41:38;;;;;;;52.40;10.77;;;19.00;85.70;;;;;;5010731;28;20060;-64
2023/04/17 09:44:05;;;;;;;34.38;11.90;;;;;;;;;;5005568;28;20120;-59
2023/04/17 09:46:37;;;;;;;34.38;10.07;;;19.00;85.90;;;;;;5007530;28;20050;-60
2023/04/17 09:49:10;;;;;;;41.45;10.85;;;18.80;87.50;;;;;;5011799;28;20048;-65
2023/04/17 09:51:36;;;;;;;;;;;18.90;87.10;;;;;;5010218;28;20045;-65
2023/04/17 09:54:05;;;;;;;33.25;9.93;;;19.00;90.20;;;;;;5014282;28;20425;-60
2023/04/17 09:56:36;;;;;;;30.45;10.10;;;19.10;90.30;;;;;;5011978;28;20396;-66
2023/04/17 09:59:05;;;;;;;38.03;11.00;;;19.10;87.70;;;;;;5011242;28;20536;-67
2023/04/17 10:01:32;;;;;;;23.40;8.82;;;19.20;90.30;;;;;;5007411;28;20034;-60
2023/04/17 10:03:59;;;;;;;21.40;9.20;;;;;;;;;;5014120;28;20081;-60
2023/04/17 10:06:28;;;;;;;25.42;9.35;;;;;;;;;;5013872;28;20049;-59
2023/04/17 10:08:54;;;;;;;19.98;9.20;;;;;;;;;;5012892;28;20121;-61
2023/04/17 10:11:26;;;;;;;19.52;8.85;;;19.10;87.80;;;;;;5012164;28;20088;-61
2023/04/17 10:14:05;;;;;;;19.17;9.40;;;19.10;90.10;;;;;;5011207;28;20046;-62
2023/04/17 10:16:38;;;;;;;21.98;9.27;;;19.00;86.50;;;;;;5008150;28;20084;-63
2023/04/17 10:19:31;;;;;;;17.27;8.93;;;19.10;86.80;;;;;;4998724;28;20050;-59
2023/04/17 10:22:20;;;;;;;15.73;9.32;;;19.10;88.30;;;;;;5011507;28;20046;-58
2023/04/17 10:25:14;;;;;;;17.92;9.18;;;19.30;88.20;;;;;;5013849;28;20103;-59
2023/04/17 10:27:40;;;;;;;15.88;9.07;;;19.20;88.60;;;;;;5006024;28;20042;-59
2023/04/17 10:30:11;;;;;;;15.77;8.65;;;19.20;87.60;;;;;;5013101;28;20388;-59
2023/04/17 10:32:37;;;;;;;17.98;9.40;;;;;;;;;;5003700;28;20042;-64
2023/04/17 10:35:15;;;;;;;17.58;9.50;;;19.00;86.90;;;;;;5011500;28;20058;-59
2023/04/17 10:37:46;;;;;;;14.77;8.40;;;19.50;90.60;;;;;;5012093;28;20180;-64
2023/04/17 10:40:41;;;;;;;14.30;9.38;;;19.40;88.60;;;;;;5003576;28;20099;-65
2023/04/17 10:43:22;;;;;;;14.77;9.13;;;19.30;88.10;;;;;;5007463;28;20052;-63
2023/04/17 10:46:01;;;;;;;13.85;9.05;;;19.20;88.80;;;;;;5010640;28;20108;-63
2023/04/17 10:48:36;;;;;;;14.63;8.57;;;19.20;86.70;;;;;;5013498;28;20050;-61
2023/04/17 10:51:21;;;;;;;12.07;8.40;;;19.40;90.60;;;;;;5001123;28;20049;-64
2023/04/17 10:53:50;;;;;;;15.95;9.65;;;;;;;;;;5012511;28;20056;-63
2023/04/17 10:56:35;;;;;;;14.80;8.80;;;19.40;90.60;;;;;;5003518;28;20053;-60
2023/04/17 10:59:01;;;;;;;14.35;9.90;;;19.30;87.90;;;;;;5010705;28;20104;-60
2023/04/17 11:01:40;;;;;;;13.25;8.60;;;19.60;90.70;;;;;;5011362;28;20046;-61
2023/04/17 11:04:07;;;;;;;14.75;9.10;;;19.40;89.00;;;;;;5010035;28;20050;-66
2023/04/17 11:06:36;;;;;;;11.52;8.32;;;19.50;88.70;;;;;;5009608;28;20054;-60
2023/04/17 11:09:05;;;;;;;11.68;8.80;;;19.50;90.60;;;;;;5005053;28;20395;-61
2023/04/17 11:11:36;;;;;;;12.90;8.70;;;19.40;90.10;;;;;;5006020;28;20050;-60
2023/04/17 11:14:05;;;;;;;14.30;8.63;;;19.50;90.50;;;;;;5008211;28;20502;-60
2023/04/17 11:16:32;;;;;;;12.30;8.43;;;;;;;;;;5009070;28;20061;-63
2023/04/17 11:18:58;;;;;;;12.75;8.90;;;;;;;;;;5011272;28;20044;-59
2023/04/17 11:21:25;;;;;;;15.25;10.15;;;19.60;90.60;;;;;;5012352;28;20399;-60
2023/04/17 11:23:51;;;;;;;12.88;8.77;;;19.60;90.00;;;;;;5009904;28;20088;-61
2023/04/17 11:26:18;;;;;;;13.48;8.88;;;19.70;87.40;;;;;;5006490;28;20488;-60
2023/04/17 11:28:44;;;;;;;13.95;8.40;;;19.90;90.60;;;;;;5005736;28;20046;-60
2023/04/17 11:31:12;;;;;;;14.02;9.40;;;19.70;88.30;;;;;;5009293;28;20042;-59
2023/04/17 11:33:38;;;;;;;13.30;8.98;;;;;;;;;;5015824;28;20058;-63
2023/04/17 11:36:05;;;;;;;12.38;9.10;;;;;;;;;;5008005;28;20400;-65
2023/04/17 11:38:31;;;;;;;13.63;9.57;;;19.60;87.90;;;;;;5010738;28;20038;-63
2023/04/17 11:40:58;;;;;;;15.15;9.90;;;19.70;87.80;;;;;;5009437;28;20061;-63
2023/04/17 11:43:24;;;;;;;14.68;10.10;;;19.80;88.40;;;;;;5011616;28;20050;-65
2023/04/17 11:45:57;;;;;;;13.95;9.02;;;19.40;90.40;;;;;;5009794;28;20034;-64
2023/04/17 11:48:25;;;;;;;14.43;10.20;;;19.90;87.60;;;;;;5008609;28;20061;-64
2023/04/17 11:50:55;;;;;;;12.23;9.05;;;20.00;88.20;;;;;;5007134;28;20464;-64
2023/04/17 11:53:21;;;;;;;13.77;8.82;;;;;;;;;;5011080;28;20068;-63
2023/04/17 11:55:48;;;;;;;12.73;9.32;;;19.80;89.50;;;;;;5010568;28;20042;-63
2023/04/17 11:58:14;;;;;;;12.43;8.93;;;19.70;89.60;;;;;;5006911;28;20410;-60
2023/04/17 12:00:41;;;;;;;14.48;9.63;;;20.00;90.50;;;;;;5007636;28;20034;-65
2023/04/17 12:03:30;;;;;;;22.23;10.32;;;20.00;87.00;;;;;;5004481;28;20038;-61
2023/04/17 12:06:00;;;;;;;14.60;9.75;;;19.90;86.40;;;;;;5008510;28;20396;-65
2023/04/17 12:08:25;;;;;;;16.73;10.05;;;20.00;90.40;;;;;;5008658;28;20035;-64
2023/04/17 12:10:51;;;;;;;17.45;9.88;;;20.00;90.30;;;;;;5007298;28;20396;-64
2023/04/17 12:13:17;;;;;;;19.45;10.80;;;20.10;90.10;;;;;;5007622;28;20041;-66
2023/04/17 12:15:43;;;;;;;13.60;9.63;;;;;;;;;;5009857;28;20107;-66
2023/04/17 12:18:09;;;;;;;18.83;10.13;;;;;;;;;;5010192;28;20046;-65
2023/04/17 12:20:36;;;;;;;16.02;10.38;;;;;;;;;;5006852;28;20060;-66
2023/04/17 12:23:02;;;;;;;15.23;9.95;;;19.90;86.30;;;;;;5008540;28;20076;-67
2023/04/17 12:25:29;;;;;;;16.33;9.60;;;20.20;89.50;;;;;;5006395;28;20050;-67
2023/04/17 12:27:56;;;;;;;14.52;8.93;;;19.90;86.60;;;;;;5008054;28;20060;-66
2023/04/17 12:30:28;;;;;;;17.83;9.52;;;19.90;89.10;;;;;;5005578;28;20061;-65
2023/04/17 12:32:55;;;;;;;14.07;9.15;;;20.30;89.70;;;;;;5008523;28;20053;-65
2023/04/17 12:35:24;;;;;;;17.00;9.07;;;20.10;85.00;;;;;;5010622;28;20042;-66
2023/04/17 12:37:50;;;;;;;21.25;9.93;;;;;;;;;;5005626;28;20053;-66
2023/04/17 12:40:23;;;;;;;106.25;16.80;;;19.90;86.50;;;;;;5003728;28;20774;-66
2023/04/17 12:42:49;;;;;;;152.32;18.70;;;19.90;89.00;;;;;;5002951;28;20391;-65
2023/04/17 12:45:15;;;;;;;75.20;15.65;;;19.90;86.60;;;;;;5009772;28;20046;-65
2023/04/17 12:47:42;;;;;;;56.63;12.85;;;;;;;;;;5010644;28;20120;-65
2023/04/17 12:50:09;;;;;;;53.92;11.75;;;;;;;;;;5007198;28;20164;-66
2023/04/17 12:52:35;;;;;;;52.53;11.93;;;20.00;88.50;;;;;;5008064;28;20042;-59
2023/04/17 12:55:02;;;;;;;42.33;12.20;;;20.10;86.10;;;;;;5010691;28;20105;-62
2023/04/17 12:57:28;;;;;;;35.20;11.00;;;;;;;;;;5000856;28;20066;-60
2023/04/17 12:59:54;;;;;;;28.42;9.75;;;20.10;88.40;;;;;;5003777;28;20041;-59
2023/04/17 13:02:22;;;;;;;30.17;10.88;;;20.10;88.40;;;;;;5010091;28;20484;-67
2023/04/17 13:04:49;;;;;;;28.27;9.57;;;20.20;85.00;;;;;;5006836;28;20135;-61
2023/04/17 13:07:16;;;;;;;31.13;10.00;;;20.00;87.00;;;;;;5007060;28;20050;-62
2023/04/17 13:09:42;;;;;;;23.50;9.93;;;20.00;88.00;;;;;;5005078;28;20045;-63
2023/04/17 13:12:08;;;;;;;31.88;9.70;;;;;;;;;;5009542;28;20042;-61
2023/04/17 13:14:34;;;;;;;24.10;9.00;;;20.10;87.90;;;;;;5007299;28;20515;-60